Main page
METAR-TAF:

METAR-TAF

Airports :

Skopje "Alexander the Great" Airport

Skopje, Macedonia

latitude: 41-58N, longitude: 021-39E, elevation: 238 m

Current weather observation

The report was made 38 minutes ago, at 04:30 UTC
Wind 2 kt from the East
Temperature 4°C
Humidity 75%
Pressure 1020 hPa
Visibility 10 km or more
Broken clouds at a height of 9000 ft

METAR: LWSK 060430Z 10002KT 9999 BKN090 04/M00 Q1020 NOSIG

Time: 06:08 (05:08 UTC)

Forecast

The report was made 2 hours and 38 minutes ago, at 02:30 UTC
Forecast valid from 06 at 03 UTC to 07 at 03 UTC
Wind 3 kt from variable directions
Visibility 10 km or more
Broken clouds at a height of 9000 ft
Becoming
from 06 at 03 UTC to 06 at 05 UTC
Wind 12 kt from the North
Temporary
from 06 at 06 UTC to 06 at 17 UTC
Wind 15 kt from the North with gusts up to 25 kt

TAF: LWSK 060230Z 0603/0703 VRB03KT 9999 BKN090 BECMG 0603/0605 35012KT TEMPO 0606/0617 01015G25KT

Weather observations and forecasts of more than 4000 airports (METAR and TAF reports).

The available stations are represented by yellow and red dots on the map.

Hover mouse over dot to see the name of the station.

Then click to see weather observations and forecasts.

To change the map : click on the green buttons with a black cross to zoom in, on the green button with a dash to zoom out, or on the green arrows for adjacent maps.


METAR-TAF: